Clogher, United Kingdom
Current Conditions -  °F | °C
As of 12:50 PM on Thursday 23 Oct 2014 (Local Time) from EGAA Reporting Station
Light Rain Light Rain  
Wind Chill: 14°   Ceiling: 1300
Heat Index: 14°   Visibility: 6mi
Dew Point: 12°   Wind: 15mph
Humidity: 88%   Direction: 230°SW
Pressure: 29.8"   Gusts: NA
Location:  54.41°N, 7.17°W
Report Text: EGAA 231150Z 23013KT 9999 -RA BKN013 BKN017 14/12 Q1009
Loading
Personal Weather Stations






























Interactive Weather Map
Tropical Storm Tracking
New forecast layout! Learn more

10-Day Weather Forecast

Advertisements
Track Severe Weather on mobile